Williamsburg, West Virginia
Current Conditions -  °F | °C
As of 6:35 AM on Wednesday 26 Nov 2014 (Local Time) from KLWB Reporting Station
Light Snow Light Snow  
Wind Chill: 34°   Ceiling: 700
Heat Index: 34°   Visibility: 1.2mi
Dew Point: 33°   Wind: 0mph
Humidity: 95%   Direction: NA
Pressure: 29.99"   Gusts: NA
Location:  37.97°N, 80.49°W
Report Text: KLWB 261135Z AUTO 00000KT 1 1/4SM -SN SCT001 OVC007 01/01 A2999 RMK AO2 P0001 T00120005
Loading
Personal Weather Stations






























Interactive Weather Map New forecast layout! Learn more

10-Day Weather Forecast

Advertisements
Track Severe Weather on mobile